sensor_id;sensor_type;location;lat;lon;timestamp;temperature;humidity
27413;DHT22;14871;52.702;5.230;2023-05-10T00:00:01;14.90;99.90
27413;DHT22;14871;52.702;5.230;2023-05-10T00:02:30;14.90;99.90
27413;DHT22;14871;52.702;5.230;2023-05-10T00:04:56;15.00;99.90
27413;DHT22;14871;52.702;5.230;2023-05-10T00:07:22;14.90;99.90
27413;DHT22;14871;52.702;5.230;2023-05-10T00:09:47;14.90;99.90
27413;DHT22;14871;52.702;5.230;2023-05-10T00:12:13;14.90;99.90
27413;DHT22;14871;52.702;5.230;2023-05-10T00:14:40;15.10;99.90
27413;DHT22;14871;52.702;5.230;2023-05-10T00:17:05;14.90;99.90
27413;DHT22;14871;52.702;5.230;2023-05-10T00:19:31;14.90;99.90
27413;DHT22;14871;52.702;5.230;2023-05-10T00:21:57;14.90;99.90
27413;DHT22;14871;52.702;5.230;2023-05-10T00:24:23;15.00;99.90
27413;DHT22;14871;52.702;5.230;2023-05-10T00:26:49;15.00;99.90
27413;DHT22;14871;52.702;5.230;2023-05-10T00:29:15;15.00;99.90
27413;DHT22;14871;52.702;5.230;2023-05-10T00:31:40;14.90;99.90
27413;DHT22;14871;52.702;5.230;2023-05-10T00:34:06;14.90;99.90
27413;DHT22;14871;52.702;5.230;2023-05-10T00:36:32;14.90;99.90
27413;DHT22;14871;52.702;5.230;2023-05-10T00:38:58;14.90;99.90
27413;DHT22;14871;52.702;5.230;2023-05-10T00:41:24;14.90;99.90
27413;DHT22;14871;52.702;5.230;2023-05-10T00:43:50;14.80;99.90
27413;DHT22;14871;52.702;5.230;2023-05-10T00:46:16;14.90;99.90
27413;DHT22;14871;52.702;5.230;2023-05-10T00:48:43;14.90;99.90
27413;DHT22;14871;52.702;5.230;2023-05-10T00:51:10;14.90;99.90
27413;DHT22;14871;52.702;5.230;2023-05-10T00:53:36;14.90;99.90
27413;DHT22;14871;52.702;5.230;2023-05-10T00:56:02;14.90;99.90
27413;DHT22;14871;52.702;5.230;2023-05-10T00:58:28;15.00;99.90
27413;DHT22;14871;52.702;5.230;2023-05-10T01:00:56;15.00;99.90
27413;DHT22;14871;52.702;5.230;2023-05-10T01:03:23;14.90;99.90
27413;DHT22;14871;52.702;5.230;2023-05-10T01:05:50;14.90;99.90
27413;DHT22;14871;52.702;5.230;2023-05-10T01:08:15;14.90;99.90
27413;DHT22;14871;52.702;5.230;2023-05-10T01:10:43;14.90;99.90
27413;DHT22;14871;52.702;5.230;2023-05-10T01:13:09;15.00;99.90
27413;DHT22;14871;52.702;5.230;2023-05-10T01:15:35;14.90;99.90
27413;DHT22;14871;52.702;5.230;2023-05-10T01:18:02;14.90;99.90
27413;DHT22;14871;52.702;5.230;2023-05-10T01:20:35;15.00;99.90
27413;DHT22;14871;52.702;5.230;2023-05-10T01:23:23;15.00;99.90
27413;DHT22;14871;52.702;5.230;2023-05-10T01:31:52;15.00;99.90
27413;DHT22;14871;52.702;5.230;2023-05-10T01:34:16;14.90;99.90
27413;DHT22;14871;52.702;5.230;2023-05-10T01:36:52;14.90;99.90
27413;DHT22;14871;52.702;5.230;2023-05-10T01:42:00;14.90;99.90
27413;DHT22;14871;52.702;5.230;2023-05-10T01:44:39;14.90;99.90
27413;DHT22;14871;52.702;5.230;2023-05-10T01:47:20;15.00;99.90
27413;DHT22;14871;52.702;5.230;2023-05-10T01:49:53;14.90;99.90
27413;DHT22;14871;52.702;5.230;2023-05-10T01:52:25;14.80;99.90
27413;DHT22;14871;52.702;5.230;2023-05-10T01:54:56;14.80;99.90
27413;DHT22;14871;52.702;5.230;2023-05-10T01:57:26;14.70;99.90
27413;DHT22;14871;52.702;5.230;2023-05-10T01:59:53;14.70;99.90
27413;DHT22;14871;52.702;5.230;2023-05-10T02:02:21;14.70;99.90
27413;DHT22;14871;52.702;5.230;2023-05-10T02:04:50;14.70;99.90
27413;DHT22;14871;52.702;5.230;2023-05-10T02:07:16;14.60;99.90
27413;DHT22;14871;52.702;5.230;2023-05-10T02:09:45;14.70;99.90
27413;DHT22;14871;52.702;5.230;2023-05-10T02:12:15;14.70;99.90
27413;DHT22;14871;52.702;5.230;2023-05-10T02:14:42;14.60;99.90
27413;DHT22;14871;52.702;5.230;2023-05-10T02:17:09;14.50;99.90
27413;DHT22;14871;52.702;5.230;2023-05-10T02:19:38;14.60;99.90
27413;DHT22;14871;52.702;5.230;2023-05-10T02:22:05;14.80;99.90
27413;DHT22;14871;52.702;5.230;2023-05-10T02:24:33;14.70;99.90
27413;DHT22;14871;52.702;5.230;2023-05-10T02:27:00;14.70;99.90
27413;DHT22;14871;52.702;5.230;2023-05-10T02:29:28;14.60;99.90
27413;DHT22;14871;52.702;5.230;2023-05-10T02:31:55;14.70;99.90
27413;DHT22;14871;52.702;5.230;2023-05-10T02:34:23;14.70;99.90
27413;DHT22;14871;52.702;5.230;2023-05-10T02:36:51;14.80;99.90
27413;DHT22;14871;52.702;5.230;2023-05-10T02:39:19;14.70;99.90
27413;DHT22;14871;52.702;5.230;2023-05-10T02:41:47;14.70;99.90
27413;DHT22;14871;52.702;5.230;2023-05-10T02:44:15;14.70;99.90
27413;DHT22;14871;52.702;5.230;2023-05-10T02:46:43;14.80;99.90
27413;DHT22;14871;52.702;5.230;2023-05-10T02:49:09;14.90;99.90
27413;DHT22;14871;52.702;5.230;2023-05-10T02:51:39;14.80;99.90
27413;DHT22;14871;52.702;5.230;2023-05-10T02:54:18;14.80;99.90
27413;DHT22;14871;52.702;5.230;2023-05-10T02:56:51;14.90;99.90
27413;DHT22;14871;52.702;5.230;2023-05-10T02:59:19;14.90;99.90
27413;DHT22;14871;52.702;5.230;2023-05-10T03:01:45;14.70;99.90
27413;DHT22;14871;52.702;5.230;2023-05-10T03:04:10;14.70;99.90
27413;DHT22;14871;52.702;5.230;2023-05-10T03:06:36;14.90;99.90
27413;DHT22;14871;52.702;5.230;2023-05-10T03:09:02;14.80;99.90
27413;DHT22;14871;52.702;5.230;2023-05-10T03:17:23;14.60;99.90
27413;DHT22;14871;52.702;5.230;2023-05-10T03:19:55;14.50;99.90
27413;DHT22;14871;52.702;5.230;2023-05-10T03:22:31;14.50;99.90
27413;DHT22;14871;52.702;5.230;2023-05-10T03:24:58;14.70;99.90
27413;DHT22;14871;52.702;5.230;2023-05-10T03:27:27;14.50;99.90
27413;DHT22;14871;52.702;5.230;2023-05-10T03:29:54;14.40;99.90
27413;DHT22;14871;52.702;5.230;2023-05-10T03:32:20;14.40;99.90
27413;DHT22;14871;52.702;5.230;2023-05-10T03:34:45;14.50;99.90
27413;DHT22;14871;52.702;5.230;2023-05-10T03:37:11;14.50;99.90
27413;DHT22;14871;52.702;5.230;2023-05-10T03:39:37;14.70;99.90
27413;DHT22;14871;52.702;5.230;2023-05-10T03:42:03;14.70;99.90
27413;DHT22;14871;52.702;5.230;2023-05-10T03:44:29;14.60;99.90
27413;DHT22;14871;52.702;5.230;2023-05-10T03:46:55;14.60;99.90
27413;DHT22;14871;52.702;5.230;2023-05-10T03:49:22;14.50;99.90
27413;DHT22;14871;52.702;5.230;2023-05-10T03:51:48;14.40;99.90
27413;DHT22;14871;52.702;5.230;2023-05-10T03:54:13;14.30;99.90
27413;DHT22;14871;52.702;5.230;2023-05-10T03:56:40;14.40;99.90
27413;DHT22;14871;52.702;5.230;2023-05-10T03:59:06;14.30;99.90
27413;DHT22;14871;52.702;5.230;2023-05-10T04:01:34;14.30;99.90
27413;DHT22;14871;52.702;5.230;2023-05-10T04:04:00;14.40;99.90
27413;DHT22;14871;52.702;5.230;2023-05-10T04:06:26;14.30;99.90
27413;DHT22;14871;52.702;5.230;2023-05-10T04:08:52;14.30;99.90
27413;DHT22;14871;52.702;5.230;2023-05-10T04:11:18;14.20;99.90
27413;DHT22;14871;52.702;5.230;2023-05-10T04:13:43;14.30;99.90
27413;DHT22;14871;52.702;5.230;2023-05-10T04:16:09;14.40;99.90
27413;DHT22;14871;52.702;5.230;2023-05-10T04:18:35;14.30;99.90
27413;DHT22;14871;52.702;5.230;2023-05-10T04:21:01;14.40;99.90
27413;DHT22;14871;52.702;5.230;2023-05-10T04:23:27;14.30;99.90
27413;DHT22;14871;52.702;5.230;2023-05-10T04:25:59;14.30;99.90
27413;DHT22;14871;52.702;5.230;2023-05-10T04:28:26;14.30;99.90
27413;DHT22;14871;52.702;5.230;2023-05-10T04:30:52;14.20;99.90
27413;DHT22;14871;52.702;5.230;2023-05-10T04:33:18;14.30;99.90
27413;DHT22;14871;52.702;5.230;2023-05-10T04:35:44;14.20;99.90
27413;DHT22;14871;52.702;5.230;2023-05-10T04:38:10;14.20;99.90
27413;DHT22;14871;52.702;5.230;2023-05-10T04:40:36;14.10;99.90
27413;DHT22;14871;52.702;5.230;2023-05-10T04:43:02;14.20;99.90
27413;DHT22;14871;52.702;5.230;2023-05-10T04:45:27;14.20;99.90
27413;DHT22;14871;52.702;5.230;2023-05-10T04:47:53;14.10;99.90
27413;DHT22;14871;52.702;5.230;2023-05-10T04:50:19;14.00;99.90
27413;DHT22;14871;52.702;5.230;2023-05-10T04:52:44;14.00;99.90
27413;DHT22;14871;52.702;5.230;2023-05-10T04:55:11;14.10;99.90
27413;DHT22;14871;52.702;5.230;2023-05-10T04:57:37;14.10;99.90
27413;DHT22;14871;52.702;5.230;2023-05-10T05:00:03;14.00;99.90
27413;DHT22;14871;52.702;5.230;2023-05-10T05:02:29;14.20;99.90
27413;DHT22;14871;52.702;5.230;2023-05-10T05:04:56;14.20;99.90
27413;DHT22;14871;52.702;5.230;2023-05-10T05:07:23;14.30;99.90
27413;DHT22;14871;52.702;5.230;2023-05-10T05:09:49;14.20;99.90
27413;DHT22;14871;52.702;5.230;2023-05-10T05:12:15;14.30;99.90
27413;DHT22;14871;52.702;5.230;2023-05-10T05:14:40;14.30;99.90
27413;DHT22;14871;52.702;5.230;2023-05-10T05:17:06;14.30;99.90
27413;DHT22;14871;52.702;5.230;2023-05-10T05:19:33;14.20;99.90
27413;DHT22;14871;52.702;5.230;2023-05-10T05:21:58;14.30;99.90
27413;DHT22;14871;52.702;5.230;2023-05-10T05:24:24;14.30;99.90
27413;DHT22;14871;52.702;5.230;2023-05-10T05:26:50;14.20;99.90
27413;DHT22;14871;52.702;5.230;2023-05-10T05:29:16;14.00;99.90
27413;DHT22;14871;52.702;5.230;2023-05-10T05:31:42;14.30;99.90
27413;DHT22;14871;52.702;5.230;2023-05-10T05:34:08;14.20;99.90
27413;DHT22;14871;52.702;5.230;2023-05-10T05:36:36;14.20;99.90
27413;DHT22;14871;52.702;5.230;2023-05-10T05:39:03;14.10;99.90
27413;DHT22;14871;52.702;5.230;2023-05-10T05:41:29;14.00;99.90
27413;DHT22;14871;52.702;5.230;2023-05-10T05:43:55;14.10;99.90
27413;DHT22;14871;52.702;5.230;2023-05-10T05:46:21;14.20;99.90
27413;DHT22;14871;52.702;5.230;2023-05-10T05:48:46;14.10;99.90
27413;DHT22;14871;52.702;5.230;2023-05-10T05:51:12;14.10;99.90
27413;DHT22;14871;52.702;5.230;2023-05-10T05:53:38;14.20;99.90
27413;DHT22;14871;52.702;5.230;2023-05-10T05:56:04;14.10;99.90
27413;DHT22;14871;52.702;5.230;2023-05-10T05:58:29;14.10;99.90
27413;DHT22;14871;52.702;5.230;2023-05-10T06:00:55;14.30;99.90
27413;DHT22;14871;52.702;5.230;2023-05-10T06:03:21;14.30;99.90
27413;DHT22;14871;52.702;5.230;2023-05-10T06:05:47;14.40;99.90
27413;DHT22;14871;52.702;5.230;2023-05-10T06:08:14;14.50;99.90
27413;DHT22;14871;52.702;5.230;2023-05-10T06:10:40;14.40;99.90
27413;DHT22;14871;52.702;5.230;2023-05-10T06:13:05;14.50;99.90
27413;DHT22;14871;52.702;5.230;2023-05-10T06:15:31;14.50;99.90
27413;DHT22;14871;52.702;5.230;2023-05-10T06:17:58;14.50;99.90
27413;DHT22;14871;52.702;5.230;2023-05-10T06:20:23;14.60;99.90
27413;DHT22;14871;52.702;5.230;2023-05-10T06:22:49;14.60;99.90
27413;DHT22;14871;52.702;5.230;2023-05-10T06:25:15;14.60;99.90
27413;DHT22;14871;52.702;5.230;2023-05-10T06:27:43;14.50;99.90
27413;DHT22;14871;52.702;5.230;2023-05-10T06:30:10;14.40;99.90
27413;DHT22;14871;52.702;5.230;2023-05-10T06:32:36;14.40;99.90
27413;DHT22;14871;52.702;5.230;2023-05-10T06:35:02;14.30;99.90
27413;DHT22;14871;52.702;5.230;2023-05-10T06:37:28;14.30;99.90
27413;DHT22;14871;52.702;5.230;2023-05-10T06:39:54;14.40;99.90
27413;DHT22;14871;52.702;5.230;2023-05-10T06:42:19;14.50;99.90
27413;DHT22;14871;52.702;5.230;2023-05-10T06:44:45;14.40;99.90
27413;DHT22;14871;52.702;5.230;2023-05-10T06:47:12;14.40;99.90
27413;DHT22;14871;52.702;5.230;2023-05-10T06:49:38;14.70;99.90
27413;DHT22;14871;52.702;5.230;2023-05-10T06:52:03;14.70;99.90
27413;DHT22;14871;52.702;5.230;2023-05-10T06:54:29;14.60;99.90
27413;DHT22;14871;52.702;5.230;2023-05-10T06:56:55;14.70;99.90
27413;DHT22;14871;52.702;5.230;2023-05-10T06:59:21;14.70;99.90
27413;DHT22;14871;52.702;5.230;2023-05-10T07:01:47;14.60;99.90
27413;DHT22;14871;52.702;5.230;2023-05-10T07:04:13;14.50;99.90
27413;DHT22;14871;52.702;5.230;2023-05-10T07:06:39;14.60;99.90
27413;DHT22;14871;52.702;5.230;2023-05-10T07:09:04;14.70;99.90
27413;DHT22;14871;52.702;5.230;2023-05-10T07:11:30;14.70;99.90
27413;DHT22;14871;52.702;5.230;2023-05-10T07:13:56;14.80;99.90
27413;DHT22;14871;52.702;5.230;2023-05-10T07:16:23;14.80;99.90
27413;DHT22;14871;52.702;5.230;2023-05-10T07:18:48;14.90;99.90
27413;DHT22;14871;52.702;5.230;2023-05-10T07:21:15;15.10;99.90
27413;DHT22;14871;52.702;5.230;2023-05-10T07:23:41;15.10;99.90
27413;DHT22;14871;52.702;5.230;2023-05-10T07:26:08;15.20;99.90
27413;DHT22;14871;52.702;5.230;2023-05-10T07:28:34;15.20;99.90
27413;DHT22;14871;52.702;5.230;2023-05-10T07:31:02;15.30;99.90
27413;DHT22;14871;52.702;5.230;2023-05-10T07:33:28;15.20;99.90
27413;DHT22;14871;52.702;5.230;2023-05-10T07:35:54;15.20;99.90
27413;DHT22;14871;52.702;5.230;2023-05-10T07:38:20;15.30;99.90
27413;DHT22;14871;52.702;5.230;2023-05-10T07:40:46;15.30;99.90
27413;DHT22;14871;52.702;5.230;2023-05-10T07:43:12;15.50;99.90
27413;DHT22;14871;52.702;5.230;2023-05-10T07:45:37;15.50;99.90
27413;DHT22;14871;52.702;5.230;2023-05-10T07:48:03;15.50;99.90
27413;DHT22;14871;52.702;5.230;2023-05-10T07:50:29;15.40;99.90
27413;DHT22;14871;52.702;5.230;2023-05-10T07:52:55;15.60;99.90
27413;DHT22;14871;52.702;5.230;2023-05-10T07:55:21;15.60;99.90
27413;DHT22;14871;52.702;5.230;2023-05-10T07:57:46;15.60;99.90
27413;DHT22;14871;52.702;5.230;2023-05-10T08:00:13;15.60;99.90
27413;DHT22;14871;52.702;5.230;2023-05-10T08:02:42;15.70;99.90
27413;DHT22;14871;52.702;5.230;2023-05-10T08:05:07;15.70;99.90
27413;DHT22;14871;52.702;5.230;2023-05-10T08:07:33;15.80;99.90
27413;DHT22;14871;52.702;5.230;2023-05-10T08:10:00;15.90;99.90
27413;DHT22;14871;52.702;5.230;2023-05-10T08:12:25;16.10;99.90
27413;DHT22;14871;52.702;5.230;2023-05-10T08:14:51;15.90;99.90
27413;DHT22;14871;52.702;5.230;2023-05-10T08:17:17;16.00;99.90
27413;DHT22;14871;52.702;5.230;2023-05-10T08:19:43;16.10;99.90
27413;DHT22;14871;52.702;5.230;2023-05-10T08:22:09;16.20;99.90
27413;DHT22;14871;52.702;5.230;2023-05-10T08:24:35;16.20;99.90
27413;DHT22;14871;52.702;5.230;2023-05-10T08:27:04;16.20;99.90
27413;DHT22;14871;52.702;5.230;2023-05-10T08:29:30;16.30;99.90
27413;DHT22;14871;52.702;5.230;2023-05-10T08:31:57;16.30;99.90
27413;DHT22;14871;52.702;5.230;2023-05-10T08:34:25;16.40;99.90
27413;DHT22;14871;52.702;5.230;2023-05-10T08:36:52;16.50;99.90
27413;DHT22;14871;52.702;5.230;2023-05-10T08:39:18;16.50;99.90
27413;DHT22;14871;52.702;5.230;2023-05-10T08:41:44;16.60;99.90
27413;DHT22;14871;52.702;5.230;2023-05-10T08:44:14;16.70;99.90
27413;DHT22;14871;52.702;5.230;2023-05-10T08:46:46;16.70;99.90
27413;DHT22;14871;52.702;5.230;2023-05-10T08:49:17;16.60;99.90
27413;DHT22;14871;52.702;5.230;2023-05-10T08:51:51;16.50;99.90
27413;DHT22;14871;52.702;5.230;2023-05-10T08:54:17;16.70;99.90
27413;DHT22;14871;52.702;5.230;2023-05-10T08:56:43;16.60;99.90
27413;DHT22;14871;52.702;5.230;2023-05-10T08:59:10;16.60;99.90
27413;DHT22;14871;52.702;5.230;2023-05-10T09:01:37;16.60;99.90
27413;DHT22;14871;52.702;5.230;2023-05-10T09:04:03;16.70;99.90
27413;DHT22;14871;52.702;5.230;2023-05-10T09:06:29;16.80;99.90
27413;DHT22;14871;52.702;5.230;2023-05-10T09:08:55;16.90;99.90
27413;DHT22;14871;52.702;5.230;2023-05-10T09:11:21;17.00;99.90
27413;DHT22;14871;52.702;5.230;2023-05-10T09:13:48;17.10;99.90
27413;DHT22;14871;52.702;5.230;2023-05-10T09:16:15;17.20;99.90
27413;DHT22;14871;52.702;5.230;2023-05-10T09:18:40;17.10;99.90
27413;DHT22;14871;52.702;5.230;2023-05-10T09:21:06;17.10;99.90
27413;DHT22;14871;52.702;5.230;2023-05-10T09:23:32;17.30;99.90
27413;DHT22;14871;52.702;5.230;2023-05-10T09:26:04;17.40;99.90
27413;DHT22;14871;52.702;5.230;2023-05-10T09:28:34;17.40;99.90
27413;DHT22;14871;52.702;5.230;2023-05-10T09:31:15;17.50;99.90
27413;DHT22;14871;52.702;5.230;2023-05-10T09:33:51;17.30;99.90
27413;DHT22;14871;52.702;5.230;2023-05-10T09:36:17;17.40;99.90
27413;DHT22;14871;52.702;5.230;2023-05-10T09:38:50;17.40;99.90
27413;DHT22;14871;52.702;5.230;2023-05-10T09:41:23;17.20;99.90
27413;DHT22;14871;52.702;5.230;2023-05-10T09:43:55;17.20;99.90
27413;DHT22;14871;52.702;5.230;2023-05-10T09:46:21;16.90;99.90
27413;DHT22;14871;52.702;5.230;2023-05-10T09:48:48;16.70;99.90
27413;DHT22;14871;52.702;5.230;2023-05-10T09:51:21;16.70;99.90
27413;DHT22;14871;52.702;5.230;2023-05-10T09:53:47;16.70;99.90
27413;DHT22;14871;52.702;5.230;2023-05-10T09:56:12;16.70;99.90
27413;DHT22;14871;52.702;5.230;2023-05-10T09:58:39;16.70;99.90
27413;DHT22;14871;52.702;5.230;2023-05-10T10:01:11;16.70;99.90
27413;DHT22;14871;52.702;5.230;2023-05-10T10:03:42;16.90;99.90
27413;DHT22;14871;52.702;5.230;2023-05-10T10:06:08;17.00;99.90
27413;DHT22;14871;52.702;5.230;2023-05-10T10:08:34;16.80;99.90
27413;DHT22;14871;52.702;5.230;2023-05-10T10:11:00;16.80;99.90
27413;DHT22;14871;52.702;5.230;2023-05-10T10:13:27;16.80;99.90
27413;DHT22;14871;52.702;5.230;2023-05-10T10:15:54;16.90;99.90
27413;DHT22;14871;52.702;5.230;2023-05-10T10:18:21;16.90;99.90
27413;DHT22;14871;52.702;5.230;2023-05-10T10:20:53;16.90;99.90
27413;DHT22;14871;52.702;5.230;2023-05-10T10:23:19;16.80;99.90
27413;DHT22;14871;52.702;5.230;2023-05-10T10:25:45;17.00;99.90
27413;DHT22;14871;52.702;5.230;2023-05-10T10:28:33;17.10;99.90
27413;DHT22;14871;52.702;5.230;2023-05-10T10:31:13;17.40;99.90
27413;DHT22;14871;52.702;5.230;2023-05-10T10:33:56;17.20;99.90
27413;DHT22;14871;52.702;5.230;2023-05-10T10:36:25;17.30;99.90
27413;DHT22;14871;52.702;5.230;2023-05-10T10:41:33;17.40;99.90
27413;DHT22;14871;52.702;5.230;2023-05-10T10:50:04;17.90;99.90
27413;DHT22;14871;52.702;5.230;2023-05-10T10:52:40;18.00;99.90
27413;DHT22;14871;52.702;5.230;2023-05-10T10:55:08;18.10;99.90
27413;DHT22;14871;52.702;5.230;2023-05-10T11:00:31;18.30;99.90
27413;DHT22;14871;52.702;5.230;2023-05-10T11:03:08;18.40;99.90
27413;DHT22;14871;52.702;5.230;2023-05-10T11:05:47;18.40;99.90
27413;DHT22;14871;52.702;5.230;2023-05-10T11:08:31;18.50;99.90
27413;DHT22;14871;52.702;5.230;2023-05-10T11:13:39;18.50;99.90
27413;DHT22;14871;52.702;5.230;2023-05-10T11:16:18;18.40;99.90
27413;DHT22;14871;52.702;5.230;2023-05-10T11:21:29;18.50;99.90
27413;DHT22;14871;52.702;5.230;2023-05-10T11:23:57;18.50;99.90
27413;DHT22;14871;52.702;5.230;2023-05-10T11:26:31;18.40;99.90
27413;DHT22;14871;52.702;5.230;2023-05-10T11:28:59;18.60;99.90
27413;DHT22;14871;52.702;5.230;2023-05-10T11:31:26;18.30;99.90
27413;DHT22;14871;52.702;5.230;2023-05-10T11:33:56;18.30;99.90
27413;DHT22;14871;52.702;5.230;2023-05-10T11:36:32;18.40;99.90
27413;DHT22;14871;52.702;5.230;2023-05-10T11:38:58;18.60;99.90
27413;DHT22;14871;52.702;5.230;2023-05-10T11:41:27;18.60;99.90
27413;DHT22;14871;52.702;5.230;2023-05-10T11:43:54;18.70;99.90
27413;DHT22;14871;52.702;5.230;2023-05-10T11:46:22;18.60;99.90
27413;DHT22;14871;52.702;5.230;2023-05-10T11:48:51;18.50;99.90
27413;DHT22;14871;52.702;5.230;2023-05-10T11:51:24;18.30;99.90
27413;DHT22;14871;52.702;5.230;2023-05-10T11:53:53;18.40;99.90
27413;DHT22;14871;52.702;5.230;2023-05-10T11:56:20;18.50;99.90
27413;DHT22;14871;52.702;5.230;2023-05-10T11:58:57;18.60;99.90
27413;DHT22;14871;52.702;5.230;2023-05-10T12:01:25;18.70;99.90
27413;DHT22;14871;52.702;5.230;2023-05-10T12:03:54;18.70;99.90
27413;DHT22;14871;52.702;5.230;2023-05-10T12:06:20;18.60;99.90
27413;DHT22;14871;52.702;5.230;2023-05-10T12:08:48;18.50;99.90
27413;DHT22;14871;52.702;5.230;2023-05-10T12:11:17;18.50;99.90
27413;DHT22;14871;52.702;5.230;2023-05-10T12:13:44;18.60;99.90
27413;DHT22;14871;52.702;5.230;2023-05-10T12:16:21;18.50;99.90
27413;DHT22;14871;52.702;5.230;2023-05-10T12:18:52;18.20;99.90
27413;DHT22;14871;52.702;5.230;2023-05-10T12:21:19;18.30;99.90
27413;DHT22;14871;52.702;5.230;2023-05-10T12:23:46;18.10;99.90
27413;DHT22;14871;52.702;5.230;2023-05-10T12:26:12;18.10;99.90
27413;DHT22;14871;52.702;5.230;2023-05-10T12:28:38;18.10;99.90
27413;DHT22;14871;52.702;5.230;2023-05-10T12:31:07;18.10;99.90
27413;DHT22;14871;52.702;5.230;2023-05-10T12:33:42;18.10;99.90
27413;DHT22;14871;52.702;5.230;2023-05-10T12:36:12;18.10;99.90
27413;DHT22;14871;52.702;5.230;2023-05-10T12:38:43;18.00;99.90
27413;DHT22;14871;52.702;5.230;2023-05-10T12:41:12;18.00;99.90
27413;DHT22;14871;52.702;5.230;2023-05-10T12:43:39;18.10;99.90
27413;DHT22;14871;52.702;5.230;2023-05-10T12:46:09;18.30;99.90
27413;DHT22;14871;52.702;5.230;2023-05-10T12:48:36;18.10;99.90
27413;DHT22;14871;52.702;5.230;2023-05-10T12:51:03;18.10;99.90
27413;DHT22;14871;52.702;5.230;2023-05-10T12:53:34;18.10;99.90
27413;DHT22;14871;52.702;5.230;2023-05-10T12:56:01;18.10;99.90
27413;DHT22;14871;52.702;5.230;2023-05-10T12:58:27;18.10;99.90
27413;DHT22;14871;52.702;5.230;2023-05-10T13:00:53;18.30;99.90
27413;DHT22;14871;52.702;5.230;2023-05-10T13:03:19;18.30;99.90
27413;DHT22;14871;52.702;5.230;2023-05-10T13:05:45;18.40;99.90
27413;DHT22;14871;52.702;5.230;2023-05-10T13:08:12;18.50;99.90
27413;DHT22;14871;52.702;5.230;2023-05-10T13:10:38;18.50;99.90
27413;DHT22;14871;52.702;5.230;2023-05-10T13:13:04;18.70;99.90
27413;DHT22;14871;52.702;5.230;2023-05-10T13:15:30;18.60;99.90
27413;DHT22;14871;52.702;5.230;2023-05-10T13:17:56;18.70;99.90
27413;DHT22;14871;52.702;5.230;2023-05-10T13:20:22;18.50;99.90
27413;DHT22;14871;52.702;5.230;2023-05-10T13:22:47;18.40;99.90
27413;DHT22;14871;52.702;5.230;2023-05-10T13:25:13;18.50;99.90
27413;DHT22;14871;52.702;5.230;2023-05-10T13:27:39;18.50;99.90
27413;DHT22;14871;52.702;5.230;2023-05-10T13:30:07;18.50;99.90
27413;DHT22;14871;52.702;5.230;2023-05-10T13:32:34;18.50;99.90
27413;DHT22;14871;52.702;5.230;2023-05-10T13:34:59;18.30;99.90
27413;DHT22;14871;52.702;5.230;2023-05-10T13:37:25;18.30;99.90
27413;DHT22;14871;52.702;5.230;2023-05-10T13:39:51;18.40;99.90
27413;DHT22;14871;52.702;5.230;2023-05-10T13:42:17;18.20;99.90
27413;DHT22;14871;52.702;5.230;2023-05-10T13:44:44;18.30;99.90
27413;DHT22;14871;52.702;5.230;2023-05-10T13:47:09;18.20;99.90
27413;DHT22;14871;52.702;5.230;2023-05-10T13:49:35;18.30;99.90
27413;DHT22;14871;52.702;5.230;2023-05-10T13:52:01;18.20;99.90
27413;DHT22;14871;52.702;5.230;2023-05-10T13:54:35;18.20;99.90
27413;DHT22;14871;52.702;5.230;2023-05-10T13:57:01;18.10;99.90
27413;DHT22;14871;52.702;5.230;2023-05-10T13:59:27;18.10;99.90
27413;DHT22;14871;52.702;5.230;2023-05-10T14:01:52;18.20;99.90
27413;DHT22;14871;52.702;5.230;2023-05-10T14:04:18;18.20;99.90
27413;DHT22;14871;52.702;5.230;2023-05-10T14:06:44;18.10;99.90
27413;DHT22;14871;52.702;5.230;2023-05-10T14:09:09;18.10;99.90
27413;DHT22;14871;52.702;5.230;2023-05-10T14:11:35;18.20;99.90
27413;DHT22;14871;52.702;5.230;2023-05-10T14:14:01;18.30;99.90
27413;DHT22;14871;52.702;5.230;2023-05-10T14:16:26;18.20;99.90
27413;DHT22;14871;52.702;5.230;2023-05-10T14:18:52;18.20;99.90
27413;DHT22;14871;52.702;5.230;2023-05-10T14:21:18;18.20;99.90
27413;DHT22;14871;52.702;5.230;2023-05-10T14:23:44;18.40;99.90
27413;DHT22;14871;52.702;5.230;2023-05-10T14:26:09;18.40;99.90
27413;DHT22;14871;52.702;5.230;2023-05-10T14:28:35;18.50;99.90
27413;DHT22;14871;52.702;5.230;2023-05-10T14:31:01;18.50;99.90
27413;DHT22;14871;52.702;5.230;2023-05-10T14:33:27;18.50;99.90
27413;DHT22;14871;52.702;5.230;2023-05-10T14:35:54;18.50;99.90
27413;DHT22;14871;52.702;5.230;2023-05-10T14:38:21;18.50;99.90
27413;DHT22;14871;52.702;5.230;2023-05-10T14:40:47;18.40;99.90
27413;DHT22;14871;52.702;5.230;2023-05-10T14:43:13;18.30;99.90
27413;DHT22;14871;52.702;5.230;2023-05-10T14:45:38;18.30;99.90
27413;DHT22;14871;52.702;5.230;2023-05-10T14:48:04;18.20;99.90
27413;DHT22;14871;52.702;5.230;2023-05-10T14:50:31;18.20;99.90
27413;DHT22;14871;52.702;5.230;2023-05-10T14:52:57;18.20;99.90
27413;DHT22;14871;52.702;5.230;2023-05-10T14:55:24;18.10;99.90
27413;DHT22;14871;52.702;5.230;2023-05-10T14:57:50;18.00;99.90
27413;DHT22;14871;52.702;5.230;2023-05-10T15:00:16;18.10;99.90
27413;DHT22;14871;52.702;5.230;2023-05-10T15:02:42;18.00;99.90
27413;DHT22;14871;52.702;5.230;2023-05-10T15:05:08;18.00;99.90
27413;DHT22;14871;52.702;5.230;2023-05-10T15:07:33;18.00;99.90
27413;DHT22;14871;52.702;5.230;2023-05-10T15:09:59;18.00;99.90
27413;DHT22;14871;52.702;5.230;2023-05-10T15:12:25;18.10;99.90
27413;DHT22;14871;52.702;5.230;2023-05-10T15:14:50;18.00;99.90
27413;DHT22;14871;52.702;5.230;2023-05-10T15:17:16;18.00;99.90
27413;DHT22;14871;52.702;5.230;2023-05-10T15:19:42;18.00;99.90
27413;DHT22;14871;52.702;5.230;2023-05-10T15:22:08;18.00;99.90
27413;DHT22;14871;52.702;5.230;2023-05-10T15:24:33;18.20;99.90
27413;DHT22;14871;52.702;5.230;2023-05-10T15:26:59;18.20;99.90
27413;DHT22;14871;52.702;5.230;2023-05-10T15:29:26;18.30;99.90
27413;DHT22;14871;52.702;5.230;2023-05-10T15:31:51;18.10;99.90
27413;DHT22;14871;52.702;5.230;2023-05-10T15:34:17;18.20;99.90
27413;DHT22;14871;52.702;5.230;2023-05-10T15:36:46;18.30;99.90
27413;DHT22;14871;52.702;5.230;2023-05-10T15:39:12;18.30;99.90
27413;DHT22;14871;52.702;5.230;2023-05-10T15:41:38;18.30;99.90
27413;DHT22;14871;52.702;5.230;2023-05-10T15:44:03;18.40;99.90
27413;DHT22;14871;52.702;5.230;2023-05-10T15:46:30;18.40;99.90
27413;DHT22;14871;52.702;5.230;2023-05-10T15:48:57;18.40;99.90
27413;DHT22;14871;52.702;5.230;2023-05-10T15:51:24;18.50;99.90
27413;DHT22;14871;52.702;5.230;2023-05-10T15:53:49;18.40;99.90
27413;DHT22;14871;52.702;5.230;2023-05-10T15:56:15;18.40;99.90
27413;DHT22;14871;52.702;5.230;2023-05-10T15:58:41;18.50;99.90
27413;DHT22;14871;52.702;5.230;2023-05-10T16:01:09;18.50;99.90